createdAt,value
2022-12-17T00:00:03.722Z,101.786
2022-12-17T00:01:03.833Z,101.571
2022-12-17T00:02:03.723Z,101.786
2022-12-17T00:03:03.925Z,101.643
2022-12-17T00:04:03.943Z,101.786
2022-12-17T00:05:03.828Z,101.643
2022-12-17T00:06:03.872Z,101.714
2022-12-17T00:07:03.881Z,101.714
2022-12-17T00:08:03.910Z,101.786
2022-12-17T00:09:03.938Z,101.857
2022-12-17T00:10:03.972Z,101.786
2022-12-17T00:11:03.987Z,101.786
2022-12-17T00:12:04.035Z,101.857
2022-12-17T00:13:04.054Z,101.643
2022-12-17T00:14:04.120Z,101.786
2022-12-17T00:15:04.112Z,101.571
2022-12-17T00:16:04.193Z,101.714
2022-12-17T00:17:04.177Z,101.571
2022-12-17T00:18:04.202Z,101.786
2022-12-17T00:19:04.248Z,101.714
2022-12-17T00:20:04.286Z,101.714
2022-12-17T00:21:04.300Z,101.643
2022-12-17T00:22:04.327Z,101.571
2022-12-17T00:23:04.374Z,101.786
2022-12-17T00:24:04.405Z,101.714
2022-12-17T00:25:04.440Z,101.786
2022-12-17T00:26:04.466Z,101.786
2022-12-17T00:27:04.488Z,101.643
2022-12-17T00:28:04.525Z,101.714
2022-12-17T00:29:04.567Z,101.714
2022-12-17T00:30:04.593Z,101.714
2022-12-17T00:31:04.651Z,101.857
2022-12-17T00:32:04.658Z,101.929
2022-12-17T00:33:04.685Z,101.571
2022-12-17T00:34:04.718Z,101.714
2022-12-17T00:35:04.749Z,101.786
2022-12-17T00:36:04.778Z,101.643
2022-12-17T00:37:04.803Z,101.571
2022-12-17T00:38:04.845Z,101.929
2022-12-17T00:39:04.872Z,101.643
2022-12-17T00:40:04.894Z,101.929
2022-12-17T00:41:04.932Z,101.786
2022-12-17T00:42:04.962Z,101.786
2022-12-17T00:43:04.990Z,101.786
2022-12-17T00:44:05.031Z,101.929
2022-12-17T00:45:05.060Z,101.786
2022-12-17T00:46:05.096Z,101.786
2022-12-17T00:47:05.261Z,101.643
2022-12-17T00:48:05.165Z,101.929
2022-12-17T00:49:05.198Z,101.857
2022-12-17T00:50:05.245Z,101.643
2022-12-17T00:51:05.277Z,101.857
2022-12-17T00:52:05.310Z,101.786
2022-12-17T00:53:05.333Z,101.786
2022-12-17T00:54:05.439Z,101.643
2022-12-17T00:55:05.414Z,101.929
2022-12-17T00:56:05.428Z,101.857
2022-12-17T00:57:05.464Z,101.786
2022-12-17T00:58:05.483Z,101.786
2022-12-17T00:59:05.517Z,101.643
2022-12-17T01:00:05.545Z,101.786
2022-12-17T01:01:05.619Z,101.857
2022-12-17T01:02:05.697Z,101.786
2022-12-17T01:03:05.755Z,101.643
2022-12-17T01:04:05.677Z,101.857
2022-12-17T01:05:05.710Z,101.643
2022-12-17T01:06:05.741Z,101.857
2022-12-17T01:07:05.768Z,101.929
2022-12-17T01:08:05.796Z,101.714
2022-12-17T01:09:05.835Z,101.643
2022-12-17T01:10:05.865Z,101.929
2022-12-17T01:11:05.895Z,101.857
2022-12-17T01:12:05.904Z,101.857
2022-12-17T01:13:05.938Z,101.929
2022-12-17T01:14:05.972Z,101.643
2022-12-17T01:15:05.997Z,101.929
2022-12-17T01:16:06.122Z,101.929
2022-12-17T01:17:06.064Z,101.786
2022-12-17T01:18:06.104Z,101.857
2022-12-17T01:19:06.126Z,101.929
2022-12-17T01:20:06.162Z,101.857
2022-12-17T01:21:06.190Z,102.071
2022-12-17T01:22:06.228Z,101.714
2022-12-17T01:23:06.254Z,101.857
2022-12-17T01:24:06.288Z,101.929
2022-12-17T01:25:06.317Z,101.714
2022-12-17T01:26:06.347Z,101.714
2022-12-17T01:27:06.375Z,101.714
2022-12-17T01:28:06.405Z,101.929
2022-12-17T01:29:06.442Z,101.857
2022-12-17T01:30:06.473Z,101.929
2022-12-17T01:31:06.549Z,101.929
2022-12-17T01:32:06.587Z,101.857
2022-12-17T01:33:06.556Z,101.929
2022-12-17T01:34:06.594Z,101.929
2022-12-17T01:35:06.621Z,101.857
2022-12-17T01:36:06.646Z,102
2022-12-17T01:37:06.679Z,101.857
2022-12-17T01:38:06.708Z,101.857
2022-12-17T01:39:06.747Z,101.857
2022-12-17T01:40:06.775Z,102
2022-12-17T01:41:06.811Z,101.857
2022-12-17T01:42:06.830Z,102.071
2022-12-17T01:43:06.869Z,101.857
2022-12-17T01:44:06.898Z,101.857
2022-12-17T01:45:06.927Z,102
2022-12-17T01:46:07.087Z,101.857
2022-12-17T01:47:06.986Z,101.857
2022-12-17T01:48:07.020Z,101.857
2022-12-17T01:49:07.053Z,101.857
2022-12-17T01:50:07.083Z,102
2022-12-17T01:51:07.115Z,101.857
2022-12-17T01:52:07.143Z,101.929
2022-12-17T01:53:07.177Z,101.786
2022-12-17T01:54:07.206Z,102
2022-12-17T01:55:07.238Z,101.857
2022-12-17T01:56:07.264Z,102
2022-12-17T01:57:07.294Z,101.857
2022-12-17T01:58:07.324Z,102
2022-12-17T01:59:07.353Z,101.857
2022-12-17T02:00:07.375Z,101.857
2022-12-17T02:01:07.421Z,101.857
2022-12-17T02:02:07.616Z,102
2022-12-17T02:03:07.523Z,101.786
2022-12-17T02:04:07.506Z,101.857
2022-12-17T02:05:07.541Z,101.786
2022-12-17T02:06:07.557Z,101.857
2022-12-17T02:07:07.654Z,101.786
2022-12-17T02:08:07.629Z,101.929
2022-12-17T02:09:07.661Z,101.929
2022-12-17T02:10:07.695Z,102
2022-12-17T02:11:07.714Z,102
2022-12-17T02:12:07.742Z,101.786
2022-12-17T02:13:07.771Z,101.857
2022-12-17T02:14:07.807Z,101.929
2022-12-17T02:15:07.835Z,101.857
2022-12-17T02:16:07.931Z,101.786
2022-12-17T02:17:07.895Z,101.929
2022-12-17T02:18:07.922Z,101.857
2022-12-17T02:19:07.951Z,101.857
2022-12-17T02:20:07.983Z,101.857
2022-12-17T02:21:08.016Z,101.857
2022-12-17T02:22:08.039Z,101.786
2022-12-17T02:23:08.080Z,101.857
2022-12-17T02:24:08.105Z,101.857
2022-12-17T02:25:08.138Z,101.857
2022-12-17T02:26:08.170Z,101.929
2022-12-17T02:27:08.209Z,101.786
2022-12-17T02:28:08.236Z,101.786
2022-12-17T02:29:08.263Z,101.929
2022-12-17T02:30:08.301Z,101.786
2022-12-17T02:31:08.327Z,101.929
2022-12-17T02:32:08.430Z,101.714
2022-12-17T02:33:08.396Z,102
2022-12-17T02:34:08.437Z,101.786
2022-12-17T02:35:08.462Z,101.857
2022-12-17T02:36:08.489Z,101.786
2022-12-17T02:37:08.520Z,101.786
2022-12-17T02:38:08.561Z,101.786
2022-12-17T02:39:08.597Z,101.857
2022-12-17T02:40:08.617Z,101.786
2022-12-17T02:41:08.651Z,101.714
2022-12-17T02:42:08.694Z,101.857
2022-12-17T02:43:08.725Z,101.857
2022-12-17T02:44:08.753Z,101.857
2022-12-17T02:45:08.773Z,101.786
2022-12-17T02:46:08.845Z,101.929
2022-12-17T02:47:08.844Z,101.857
2022-12-17T02:48:08.865Z,101.714
2022-12-17T02:49:08.897Z,101.929
2022-12-17T02:50:08.925Z,101.857
2022-12-17T02:51:08.987Z,101.857
2022-12-17T02:52:08.991Z,101.857
2022-12-17T02:53:09.035Z,102
2022-12-17T02:54:09.061Z,101.929
2022-12-17T02:55:09.082Z,101.857
2022-12-17T02:56:09.125Z,101.786
2022-12-17T02:57:09.152Z,101.857
2022-12-17T02:58:09.187Z,101.714
2022-12-17T02:59:09.217Z,101.786
2022-12-17T03:00:09.248Z,101.857
2022-12-17T03:01:09.350Z,101.857
2022-12-17T03:02:09.499Z,101.857
2022-12-17T03:03:09.413Z,101.929
2022-12-17T03:04:09.367Z,101.857
2022-12-17T03:05:35.619Z,101.857
2022-12-17T03:06:09.440Z,101.857
2022-12-17T03:07:09.536Z,101.857
2022-12-17T03:08:09.498Z,101.857
2022-12-17T03:09:09.517Z,101.786
2022-12-17T03:10:09.552Z,101.857
2022-12-17T03:11:09.581Z,101.857
2022-12-17T03:12:09.619Z,101.857
2022-12-17T03:13:09.654Z,102.071
2022-12-17T03:14:09.684Z,101.929
2022-12-17T03:15:09.715Z,101.929
2022-12-17T03:16:09.754Z,101.714
2022-12-17T03:17:09.859Z,101.929
2022-12-17T03:18:09.820Z,101.857
2022-12-17T03:19:09.845Z,101.929
2022-12-17T03:20:09.866Z,101.857
2022-12-17T03:21:09.910Z,101.857
2022-12-17T03:22:09.947Z,101.929
2022-12-17T03:23:09.984Z,101.857
2022-12-17T03:24:10.019Z,101.786
2022-12-17T03:25:10.049Z,101.929
2022-12-17T03:26:10.083Z,101.857
2022-12-17T03:27:10.111Z,101.929
2022-12-17T03:28:10.140Z,101.929
2022-12-17T03:29:10.175Z,101.857
2022-12-17T03:30:10.206Z,101.786
2022-12-17T03:31:10.293Z,101.786
2022-12-17T03:32:10.282Z,101.857
2022-12-17T03:33:10.303Z,101.857
2022-12-17T03:34:10.328Z,101.786
2022-12-17T03:35:10.361Z,101.929
2022-12-17T03:36:10.382Z,101.857
2022-12-17T03:37:10.419Z,101.929
2022-12-17T03:38:10.448Z,101.786
2022-12-17T03:39:10.467Z,101.857
2022-12-17T03:40:10.484Z,101.857
2022-12-17T03:41:10.521Z,102
2022-12-17T03:42:10.552Z,101.857
2022-12-17T03:43:10.584Z,101.857
2022-12-17T03:44:10.623Z,101.786
2022-12-17T03:45:10.645Z,101.929
2022-12-17T03:46:10.739Z,101.786
2022-12-17T03:47:10.707Z,102
2022-12-17T03:48:10.741Z,102
2022-12-17T03:49:10.773Z,101.929
2022-12-17T03:50:10.812Z,102
2022-12-17T03:51:10.837Z,102
2022-12-17T03:52:10.867Z,102
2022-12-17T03:53:10.903Z,102
2022-12-17T03:54:10.927Z,102
2022-12-17T03:55:10.968Z,102
2022-12-17T03:56:11.007Z,101.857
2022-12-17T03:57:15.941Z,101.857
2022-12-17T03:58:11.054Z,101.857
2022-12-17T03:59:11.085Z,102
2022-12-17T04:00:11.118Z,101.929
2022-12-17T04:01:11.240Z,101.929
2022-12-17T04:02:11.356Z,101.857
2022-12-17T04:03:11.268Z,102.071
2022-12-17T04:04:11.240Z,102
2022-12-17T04:05:16.579Z,101.786
2022-12-17T04:06:11.300Z,101.929
2022-12-17T04:07:11.337Z,101.929
2022-12-17T04:08:11.365Z,101.929
2022-12-17T04:09:11.393Z,101.929
2022-12-17T04:10:11.425Z,101.786
2022-12-17T04:11:11.454Z,101.929
2022-12-17T04:12:11.490Z,102
2022-12-17T04:13:11.529Z,101.857
2022-12-17T04:14:11.554Z,101.857
2022-12-17T04:15:11.586Z,102
2022-12-17T04:16:11.658Z,101.929
2022-12-17T04:17:11.639Z,101.929
2022-12-17T04:18:11.682Z,101.929
2022-12-17T04:19:11.717Z,102
2022-12-17T04:20:11.746Z,101.929
2022-12-17T04:21:11.775Z,101.857
2022-12-17T04:22:11.806Z,101.929
2022-12-17T04:23:11.836Z,102
2022-12-17T04:24:11.851Z,101.929
2022-12-17T04:25:11.890Z,101.857
2022-12-17T04:26:11.922Z,102
2022-12-17T04:27:11.945Z,102
2022-12-17T04:28:11.979Z,102
2022-12-17T04:29:12.016Z,101.929
2022-12-17T04:30:12.059Z,102
2022-12-17T04:31:12.125Z,102
2022-12-17T04:32:12.114Z,102
2022-12-17T04:33:12.141Z,101.857
2022-12-17T04:34:12.169Z,102
2022-12-17T04:35:12.193Z,102
2022-12-17T04:36:12.230Z,101.929
2022-12-17T04:37:12.256Z,102
2022-12-17T04:38:12.276Z,101.857
2022-12-17T04:39:12.308Z,101.929
2022-12-17T04:40:12.339Z,101.929
2022-12-17T04:41:12.373Z,102
2022-12-17T04:42:12.402Z,101.929
2022-12-17T04:43:12.426Z,102.071
2022-12-17T04:44:12.454Z,102
2022-12-17T04:45:12.483Z,101.857
2022-12-17T04:46:12.615Z,102
2022-12-17T04:47:12.545Z,102
2022-12-17T04:48:12.572Z,102.071
2022-12-17T04:49:12.600Z,101.929
2022-12-17T04:50:12.631Z,101.929
2022-12-17T04:51:12.667Z,101.857
2022-12-17T04:52:12.686Z,101.857
2022-12-17T04:53:12.718Z,101.857
2022-12-17T04:54:12.761Z,102
2022-12-17T04:55:12.782Z,101.929
2022-12-17T04:56:12.813Z,102
2022-12-17T04:57:12.836Z,102
2022-12-17T04:58:12.862Z,101.929
2022-12-17T04:59:12.903Z,102
2022-12-17T05:00:12.926Z,101.857
2022-12-17T05:01:13.077Z,102
2022-12-17T05:02:13.088Z,101.929
2022-12-17T05:03:13.075Z,101.786
2022-12-17T05:04:13.040Z,102
2022-12-17T05:05:13.077Z,102.143
2022-12-17T05:06:13.103Z,102
2022-12-17T05:07:13.134Z,102
2022-12-17T05:08:13.168Z,102.357
2022-12-17T05:09:13.198Z,102.071
2022-12-17T05:10:13.228Z,101.857
2022-12-17T05:11:13.265Z,102.071
2022-12-17T05:12:13.286Z,102
2022-12-17T05:13:13.317Z,101.929
2022-12-17T05:14:13.353Z,102.143
2022-12-17T05:15:13.383Z,102
2022-12-17T05:16:13.446Z,102
2022-12-17T05:17:13.433Z,101.929
2022-12-17T05:18:13.469Z,102
2022-12-17T05:19:13.502Z,102.143
2022-12-17T05:20:13.527Z,102
2022-12-17T05:21:13.559Z,102.071
2022-12-17T05:22:13.599Z,101.857
2022-12-17T05:23:13.638Z,102
2022-12-17T05:24:13.677Z,101.929
2022-12-17T05:25:13.710Z,102
2022-12-17T05:26:13.735Z,102
2022-12-17T05:27:13.760Z,101.929
2022-12-17T05:28:13.791Z,101.857
2022-12-17T05:29:16.068Z,102.143
2022-12-17T05:30:13.849Z,102.143
2022-12-17T05:31:13.988Z,102.071
2022-12-17T05:32:13.911Z,101.929
2022-12-17T05:33:13.941Z,102
2022-12-17T05:34:13.972Z,101.929
2022-12-17T05:35:14.007Z,102.071
2022-12-17T05:36:14.041Z,102.143
2022-12-17T05:37:14.064Z,102.071
2022-12-17T05:38:14.092Z,102
2022-12-17T05:39:14.133Z,101.857
2022-12-17T05:40:14.163Z,101.929
2022-12-17T05:41:14.191Z,102.071
2022-12-17T05:42:14.219Z,102.071
2022-12-17T05:43:14.253Z,102
2022-12-17T05:44:14.278Z,102
2022-12-17T05:45:14.306Z,102
2022-12-17T05:46:14.433Z,101.929
2022-12-17T05:47:14.371Z,101.929
2022-12-17T05:48:14.398Z,102
2022-12-17T05:49:14.430Z,102.214
2022-12-17T05:50:14.473Z,102.071
2022-12-17T05:51:14.500Z,102.143
2022-12-17T05:52:14.536Z,101.857
2022-12-17T05:53:14.573Z,102.143
2022-12-17T05:54:14.601Z,102.071
2022-12-17T05:55:14.641Z,102
2022-12-17T05:56:14.672Z,102
2022-12-17T05:57:14.707Z,102.214
2022-12-17T05:58:14.738Z,102.071
2022-12-17T05:59:14.764Z,102
2022-12-17T06:00:14.798Z,102.071
2022-12-17T06:01:14.880Z,102
2022-12-17T06:02:14.904Z,102
2022-12-17T06:03:15.039Z,102.214
2022-12-17T06:04:15.027Z,102
2022-12-17T06:05:14.952Z,102.143
2022-12-17T06:06:14.992Z,102
2022-12-17T06:07:15.028Z,102
2022-12-17T06:08:15.047Z,102.071
2022-12-17T06:09:15.073Z,102
2022-12-17T06:10:15.114Z,102.214
2022-12-17T06:11:15.147Z,102.071
2022-12-17T06:12:15.167Z,102.143
2022-12-17T06:13:15.203Z,102.071
2022-12-17T06:14:15.219Z,102
2022-12-17T06:15:15.264Z,102.143
2022-12-17T06:16:15.293Z,102.214
2022-12-17T06:17:15.317Z,102.143
2022-12-17T06:18:17.189Z,102.071
2022-12-17T06:19:15.369Z,102
2022-12-17T06:20:15.406Z,102
2022-12-17T06:21:15.447Z,102.214
2022-12-17T06:22:15.467Z,102.214
2022-12-17T06:23:15.506Z,102.214
2022-12-17T06:24:15.532Z,102.143
2022-12-17T06:25:15.570Z,102.143
2022-12-17T06:26:15.597Z,102
2022-12-17T06:27:15.627Z,102.143
2022-12-17T06:28:15.659Z,102.071
2022-12-17T06:29:15.686Z,102.214
2022-12-17T06:30:18.899Z,102
2022-12-17T06:31:15.799Z,101.929
2022-12-17T06:32:15.763Z,102
2022-12-17T06:33:15.791Z,102.143
2022-12-17T06:34:15.827Z,102.143
2022-12-17T06:35:15.868Z,102
2022-12-17T06:36:22.192Z,102.071
2022-12-17T06:37:15.929Z,102.071
2022-12-17T06:38:15.965Z,102.071
2022-12-17T06:39:15.984Z,102.214
2022-12-17T06:40:16.012Z,102.071
2022-12-17T06:41:16.048Z,102.071
2022-12-17T06:42:16.076Z,102.286
2022-12-17T06:43:16.115Z,102.143
2022-12-17T06:44:16.140Z,102.143
2022-12-17T06:45:16.173Z,102
2022-12-17T06:46:16.257Z,102.143
2022-12-17T06:47:16.228Z,102.143
2022-12-17T06:48:16.247Z,102.214
2022-12-17T06:49:16.287Z,102.143
2022-12-17T06:50:16.323Z,102.214
2022-12-17T06:51:16.342Z,102.286
2022-12-17T06:52:16.376Z,102.214
2022-12-17T06:53:16.409Z,102.143
2022-12-17T06:54:16.446Z,102.143
2022-12-17T06:55:16.479Z,102.214
2022-12-17T06:56:16.519Z,102.214
2022-12-17T06:57:16.592Z,102.143
2022-12-17T06:58:16.580Z,102.143
2022-12-17T06:59:16.609Z,102.071
2022-12-17T07:00:16.643Z,102.214
2022-12-17T07:01:16.794Z,102.071
2022-12-17T07:02:16.780Z,102
2022-12-17T07:03:16.762Z,102.214
2022-12-17T07:04:16.768Z,102.143
2022-12-17T07:05:16.804Z,102.143
2022-12-17T07:06:16.837Z,102.071
2022-12-17T07:07:16.861Z,102.071
2022-12-17T07:08:16.885Z,102.214
2022-12-17T07:09:16.917Z,102.214
2022-12-17T07:10:16.955Z,102.214
2022-12-17T07:11:16.973Z,102.214
2022-12-17T07:12:17.092Z,102.143
2022-12-17T07:13:17.052Z,102.214
2022-12-17T07:14:17.073Z,102.071
2022-12-17T07:15:17.104Z,102.214
2022-12-17T07:16:17.160Z,102.071
2022-12-17T07:17:17.161Z,102.214
2022-12-17T07:18:17.195Z,102.071
2022-12-17T07:19:17.225Z,102.214
2022-12-17T07:20:17.264Z,102.357
2022-12-17T07:21:17.291Z,102.286
2022-12-17T07:22:17.313Z,102.286
2022-12-17T07:23:17.351Z,102.143
2022-12-17T07:24:17.390Z,102.286
2022-12-17T07:25:17.417Z,102.214
2022-12-17T07:26:17.452Z,102.143
2022-12-17T07:27:17.491Z,102.214
2022-12-17T07:28:17.527Z,102.214
2022-12-17T07:29:17.540Z,102.071
2022-12-17T07:30:17.577Z,102.071
2022-12-17T07:31:17.705Z,102.214
2022-12-17T07:32:17.636Z,102.214
2022-12-17T07:33:17.668Z,102.286
2022-12-17T07:34:17.696Z,102.214
2022-12-17T07:35:17.719Z,102.357
2022-12-17T07:36:17.754Z,102.214
2022-12-17T07:37:20.618Z,102.214
2022-12-17T07:38:17.820Z,102.214
2022-12-17T07:39:17.838Z,102.071
2022-12-17T07:40:17.876Z,102.143
2022-12-17T07:41:17.907Z,102.143
2022-12-17T07:42:17.930Z,102.286
2022-12-17T07:43:17.970Z,102.143
2022-12-17T07:44:18.004Z,102.214
2022-12-17T07:45:18.033Z,102.357
2022-12-17T07:46:18.136Z,102.357
2022-12-17T07:47:18.092Z,102.071
2022-12-17T07:48:18.117Z,102.214
2022-12-17T07:49:24.012Z,102.143
2022-12-17T07:50:18.183Z,102.214
2022-12-17T07:51:18.220Z,102.143
2022-12-17T07:52:18.246Z,102.143
2022-12-17T07:53:18.278Z,102.214
2022-12-17T07:54:18.309Z,102.357
2022-12-17T07:55:18.587Z,102.143
2022-12-17T07:56:18.385Z,102.429
2022-12-17T07:57:18.410Z,102.214
2022-12-17T07:58:18.436Z,102.143
2022-12-17T07:59:18.476Z,102.143
2022-12-17T08:00:18.513Z,102.357
2022-12-17T08:01:18.731Z,102.143
2022-12-17T08:02:18.767Z,102.357
2022-12-17T08:03:18.677Z,102.286
2022-12-17T08:04:18.642Z,102.214
2022-12-17T08:05:18.735Z,102.429
2022-12-17T08:06:18.696Z,102.143
2022-12-17T08:07:18.725Z,102.214
2022-12-17T08:08:18.757Z,102.286
2022-12-17T08:09:18.797Z,102.214
2022-12-17T08:10:18.819Z,102.357
2022-12-17T08:11:18.852Z,102.214
2022-12-17T08:12:18.875Z,102.143
2022-12-17T08:13:18.917Z,102.071
2022-12-17T08:14:18.940Z,102.286
2022-12-17T08:15:18.960Z,102.214
2022-12-17T08:16:19.046Z,102.214
2022-12-17T08:17:19.022Z,102.286
2022-12-17T08:18:24.347Z,102.429
2022-12-17T08:19:19.078Z,102.357
2022-12-17T08:20:19.102Z,102.214
2022-12-17T08:21:19.140Z,102.286
2022-12-17T08:22:19.167Z,102.286
2022-12-17T08:23:19.201Z,102.214
2022-12-17T08:24:19.237Z,102.143
2022-12-17T08:25:19.263Z,102.214
2022-12-17T08:26:19.299Z,102.214
2022-12-17T08:27:19.340Z,102.214
2022-12-17T08:28:48.908Z,102.214
2022-12-17T08:29:19.402Z,102.214
2022-12-17T08:30:19.425Z,102.286
2022-12-17T08:31:19.526Z,102.286
2022-12-17T08:32:19.496Z,102.286
2022-12-17T08:33:19.527Z,102.286
2022-12-17T08:34:19.546Z,102.214
2022-12-17T08:35:19.573Z,102.143
2022-12-17T08:36:19.606Z,102.286
2022-12-17T08:37:19.637Z,102.143
2022-12-17T08:38:19.665Z,102.429
2022-12-17T08:39:19.706Z,102.214
2022-12-17T08:40:19.736Z,102.286
2022-12-17T08:41:19.760Z,102.143
2022-12-17T08:42:19.790Z,102.143
2022-12-17T08:43:19.806Z,102.071
2022-12-17T08:44:19.846Z,102.214
2022-12-17T08:45:19.886Z,102.214
2022-12-17T08:46:20.086Z,102.357
2022-12-17T08:47:19.950Z,102.357
2022-12-17T08:48:19.985Z,102.286
2022-12-17T08:49:20.010Z,102.143
2022-12-17T08:50:20.040Z,102.429
2022-12-17T08:51:20.075Z,102.214
2022-12-17T08:52:20.103Z,102.286
2022-12-17T08:53:20.135Z,102.286
2022-12-17T08:54:20.171Z,102.143
2022-12-17T08:55:20.200Z,102.286
2022-12-17T08:56:20.238Z,102.286
2022-12-17T08:57:31.433Z,102.286
2022-12-17T08:58:20.294Z,102.5
2022-12-17T08:59:20.320Z,102.143
2022-12-17T09:00:20.358Z,102.429
2022-12-17T09:01:20.531Z,102.214
2022-12-17T09:02:20.656Z,102.357
2022-12-17T09:03:20.534Z,102.286
2022-12-17T09:04:20.473Z,102.214
2022-12-17T09:05:20.519Z,102.143
2022-12-17T09:06:20.543Z,102.214
2022-12-17T09:07:20.562Z,102.071
2022-12-17T09:08:20.606Z,102.357
2022-12-17T09:09:20.631Z,102.286
2022-12-17T09:10:20.663Z,102.214
2022-12-17T09:11:20.703Z,102.214
2022-12-17T09:12:20.733Z,102.143
2022-12-17T09:13:20.765Z,102.357
2022-12-17T09:14:20.799Z,102.143
2022-12-17T09:15:20.837Z,102.286
2022-12-17T09:16:20.903Z,102.143
2022-12-17T09:17:20.897Z,102.286
2022-12-17T09:18:20.926Z,102.357
2022-12-17T09:19:20.960Z,102.214
2022-12-17T09:20:24.857Z,102.286
2022-12-17T09:21:21.033Z,102.357
2022-12-17T09:22:21.062Z,102.143
2022-12-17T09:23:21.091Z,102.214
2022-12-17T09:24:21.113Z,102.357
2022-12-17T09:25:21.142Z,102.214
2022-12-17T09:26:21.172Z,102.214
2022-12-17T09:27:21.215Z,102.214
2022-12-17T09:28:21.243Z,102.214
2022-12-17T09:29:21.292Z,102.214
2022-12-17T09:30:21.310Z,102.429
2022-12-17T09:31:21.466Z,102.357
2022-12-17T09:32:21.372Z,102.429
2022-12-17T09:33:21.411Z,102.286
2022-12-17T09:34:21.435Z,102.357
2022-12-17T09:35:21.468Z,102.357
2022-12-17T09:36:21.498Z,102.357
2022-12-17T09:37:21.532Z,102.357
2022-12-17T09:38:21.556Z,102.286
2022-12-17T09:39:21.602Z,102.357
2022-12-17T09:40:21.629Z,102.429
2022-12-17T09:41:21.655Z,102.214
2022-12-17T09:42:21.689Z,102.429
2022-12-17T09:43:21.721Z,102.286
2022-12-17T09:44:21.744Z,102.286
2022-12-17T09:45:21.776Z,102.286
2022-12-17T09:46:21.875Z,102.357
2022-12-17T09:47:21.843Z,102.286
2022-12-17T09:48:21.864Z,102.429
2022-12-17T09:49:21.901Z,102.214
2022-12-17T09:50:21.982Z,102.429
2022-12-17T09:51:21.964Z,102.214
2022-12-17T09:52:22.040Z,102.429
2022-12-17T09:53:22.063Z,102.5
2022-12-17T09:54:22.071Z,102.429
2022-12-17T09:55:22.099Z,102.214
2022-12-17T09:56:22.145Z,102.429
2022-12-17T09:57:22.176Z,102.214
2022-12-17T09:58:22.199Z,102.357
2022-12-17T09:59:22.233Z,102.429
2022-12-17T10:00:22.258Z,102.357
2022-12-17T10:01:22.376Z,102.357
2022-12-17T10:02:22.580Z,102.5
2022-12-17T10:03:22.416Z,102.429
2022-12-17T10:04:22.388Z,102.286
2022-12-17T10:05:22.424Z,102.357
2022-12-17T10:06:22.888Z,102.214
2022-12-17T10:07:22.483Z,102.143
2022-12-17T10:08:22.516Z,102.357
2022-12-17T10:09:22.557Z,102.286
2022-12-17T10:10:22.586Z,102.143
2022-12-17T10:11:22.602Z,102.357
2022-12-17T10:12:22.640Z,102.357
2022-12-17T10:13:22.659Z,102.214
2022-12-17T10:14:22.711Z,102.143
2022-12-17T10:15:22.729Z,102.214
2022-12-17T10:16:22.823Z,102.143
2022-12-17T10:17:22.799Z,102.357
2022-12-17T10:18:22.833Z,102.286
2022-12-17T10:19:22.861Z,102.286
2022-12-17T10:20:22.893Z,102.214
2022-12-17T10:21:22.920Z,102.286
2022-12-17T10:22:22.968Z,102.429
2022-12-17T10:23:22.998Z,102.357
2022-12-17T10:24:23.031Z,102.429
2022-12-17T10:25:23.052Z,102.214
2022-12-17T10:26:23.088Z,102.214
2022-12-17T10:27:23.114Z,102.429
2022-12-17T10:28:23.150Z,102.429
2022-12-17T10:29:23.184Z,102.429
2022-12-17T10:30:23.211Z,102.357
2022-12-17T10:31:23.332Z,102.357
2022-12-17T10:32:23.274Z,102.286
2022-12-17T10:33:23.309Z,102.286
2022-12-17T10:34:23.340Z,102.357
2022-12-17T10:35:23.364Z,102.286
2022-12-17T10:36:23.411Z,102.429
2022-12-17T10:37:23.427Z,102.429
2022-12-17T10:38:23.478Z,102.357
2022-12-17T10:39:23.507Z,102.429
2022-12-17T10:40:23.546Z,102.429
2022-12-17T10:41:23.572Z,102.429
2022-12-17T10:42:23.606Z,102.429
2022-12-17T10:43:23.635Z,102.643
2022-12-17T10:44:23.667Z,102.571
2022-12-17T10:45:23.701Z,102.571
2022-12-17T10:46:23.758Z,102.357
2022-12-17T10:47:23.775Z,102.357
2022-12-17T10:48:23.798Z,102.357
2022-12-17T10:49:23.824Z,102.571
2022-12-17T10:50:23.865Z,102.5
2022-12-17T10:51:23.896Z,102.357
2022-12-17T10:52:23.924Z,102.357
2022-12-17T10:53:23.952Z,102.429
2022-12-17T10:54:23.981Z,102.357
2022-12-17T10:55:24.018Z,102.429
2022-12-17T10:56:24.043Z,102.357
2022-12-17T10:57:24.071Z,102.571
2022-12-17T10:58:24.099Z,102.429
2022-12-17T10:59:24.140Z,102.5
2022-12-17T11:00:24.166Z,102.429
2022-12-17T11:01:24.305Z,102.357
2022-12-17T11:02:24.400Z,102.286
2022-12-17T11:03:24.360Z,102.357
2022-12-17T11:04:24.298Z,102.286
2022-12-17T11:05:24.325Z,102.357
2022-12-17T11:06:24.367Z,102.143
2022-12-17T11:07:24.397Z,102.286
2022-12-17T11:08:24.423Z,102.357
2022-12-17T11:09:24.457Z,102.357
2022-12-17T11:10:24.488Z,102.5
2022-12-17T11:11:24.529Z,102.357
2022-12-17T11:12:30.117Z,102.357
2022-12-17T11:13:24.583Z,102.357
2022-12-17T11:14:24.615Z,102.429
2022-12-17T11:15:24.653Z,102.429
2022-12-17T11:16:24.751Z,102.357
2022-12-17T11:17:24.710Z,102.357
2022-12-17T11:18:24.747Z,102.357
2022-12-17T11:19:24.774Z,102.429
2022-12-17T11:20:24.803Z,102.357
2022-12-17T11:21:24.832Z,102.429
2022-12-17T11:22:24.867Z,102.357
2022-12-17T11:23:24.894Z,102.5
2022-12-17T11:24:24.922Z,102.5
2022-12-17T11:25:24.956Z,102.357
2022-12-17T11:26:25.002Z,102.429
2022-12-17T11:27:25.031Z,102.5
2022-12-17T11:28:25.055Z,102.429
2022-12-17T11:29:25.081Z,102.286
2022-12-17T11:30:30.564Z,102.5
2022-12-17T11:31:25.218Z,102.357
2022-12-17T11:32:25.190Z,102.143
2022-12-17T11:33:25.218Z,102.429
2022-12-17T11:34:25.253Z,102.5
2022-12-17T11:35:25.279Z,102.286
2022-12-17T11:36:31.256Z,102.357
2022-12-17T11:37:25.344Z,102.357
2022-12-17T11:38:25.366Z,102.357
2022-12-17T11:39:25.396Z,102.357
2022-12-17T11:40:25.427Z,102.429
2022-12-17T11:41:25.513Z,102.357
2022-12-17T11:42:25.505Z,102.5
2022-12-17T11:43:25.530Z,102.429
2022-12-17T11:44:25.564Z,102.429
2022-12-17T11:45:25.590Z,102.357
2022-12-17T11:46:25.681Z,102.286
2022-12-17T11:47:25.681Z,102.571
2022-12-17T11:48:25.678Z,102.571
2022-12-17T11:49:25.710Z,102.286
2022-12-17T11:50:25.753Z,102.429
2022-12-17T11:51:25.785Z,102.571
2022-12-17T11:52:25.827Z,102.429
2022-12-17T11:53:28.248Z,102.5
2022-12-17T11:54:25.875Z,102.429
2022-12-17T11:55:25.889Z,102.357
2022-12-17T11:56:25.924Z,102.429
2022-12-17T11:57:25.964Z,102.357
2022-12-17T11:58:25.993Z,102.5
2022-12-17T11:59:26.022Z,102.357
2022-12-17T12:00:26.059Z,102.429
2022-12-17T12:01:26.138Z,102.429
2022-12-17T12:02:26.164Z,102.429
2022-12-17T12:03:26.309Z,102.357
2022-12-17T12:04:26.186Z,102.429
2022-12-17T12:05:26.211Z,102.429
2022-12-17T12:06:26.245Z,102.429
2022-12-17T12:07:26.291Z,102.286
2022-12-17T12:08:26.302Z,102.5
2022-12-17T12:09:26.336Z,102.429
2022-12-17T12:10:26.365Z,102.429
2022-12-17T12:11:31.400Z,102.429
2022-12-17T12:12:26.416Z,102.286
2022-12-17T12:13:26.456Z,102.214
2022-12-17T12:14:26.477Z,102.429
2022-12-17T12:15:26.504Z,102.429
2022-12-17T12:16:26.671Z,102.429